Time;durP1;ratioP1;P1;durP2;ratioP2;P2;SDS_P1;SDS_P2;PMS_P1;PMS_P2;Temp;Humidity;BMP_temperature;BMP_pressure;BME280_temperature;BME280_humidity;BME280_pressure;Samples;Min_cycle;Max_cycle;Signal;HPM_P1;HPM_P2
2021/09/26 00:01:14;;;;;;;;;27.00;26.00;;;;;19.45;88.72;101013.16;5082739;27;45346;-63
2021/09/26 00:03:39;;;;;;;;;28.00;26.00;;;;;19.44;88.42;101007.03;5082422;27;45335;-63
2021/09/26 00:06:04;;;;;;;;;25.25;23.25;;;;;19.40;88.83;101010.78;5082291;27;46205;-63
2021/09/26 00:08:30;;;;;;;;;28.75;25.25;;;;;19.37;88.61;101004.84;5082062;27;45314;-63
2021/09/26 00:10:55;;;;;;;;;27.50;26.00;;;;;19.37;88.76;101008.31;5082600;27;45292;-63
2021/09/26 00:13:21;;;;;;;;;29.50;26.25;;;;;19.38;88.84;101010.00;5082397;27;45408;-62
2021/09/26 00:15:46;;;;;;;;;30.00;28.50;;;;;19.39;88.66;101011.72;5082346;27;45400;-63
2021/09/26 00:18:13;;;;;;;;;30.50;27.50;;;;;19.39;88.74;101010.88;5070294;27;45248;-63
2021/09/26 00:20:38;;;;;;;;;28.25;24.75;;;;;19.37;88.27;101013.59;5082234;27;45305;-63
2021/09/26 00:23:04;;;;;;;;;31.00;28.25;;;;;19.37;88.67;101026.78;5081597;27;45302;-65
2021/09/26 00:25:29;;;;;;;;;26.25;25.25;;;;;19.36;88.55;101034.78;5082221;27;46018;-64
2021/09/26 00:27:55;;;;;;;;;29.25;23.75;;;;;19.35;88.00;101026.00;5082189;27;45290;-64
2021/09/26 00:30:21;;;;;;;;;29.50;25.50;;;;;19.34;87.93;101020.84;5082192;27;45358;-64
2021/09/26 00:32:46;;;;;;;;;29.25;25.50;;;;;19.35;87.88;101028.66;5082033;27;45620;-63
2021/09/26 00:35:13;;;;;;;;;29.25;25.00;;;;;19.32;88.36;101028.00;5081891;27;45243;-62
2021/09/26 00:37:39;;;;;;;;;25.75;24.50;;;;;19.32;88.01;101035.91;5081617;28;45227;-62
2021/09/26 00:40:06;;;;;;;;;29.00;26.25;;;;;19.33;88.32;101041.06;5081485;27;45334;-62
2021/09/26 00:42:32;;;;;;;;;27.50;23.75;;;;;19.34;88.18;101032.22;5078714;27;45659;-62
2021/09/26 00:44:58;;;;;;;;;28.75;23.75;;;;;19.36;88.47;101024.22;5077998;28;46319;-62
2021/09/26 00:47:24;;;;;;;;;32.00;26.25;;;;;19.36;87.97;101038.25;5078628;27;45401;-61
2021/09/26 00:49:50;;;;;;;;;24.25;21.50;;;;;19.36;88.11;101046.16;5079467;27;45468;-61
2021/09/26 00:52:20;;;;;;;;;32.00;27.00;;;;;19.34;88.64;101049.81;5078274;27;45460;-61
2021/09/26 00:54:46;;;;;;;;;31.00;25.25;;;;;19.32;88.85;101056.97;5077952;28;46279;-61
2021/09/26 00:57:11;;;;;;;;;27.50;23.75;;;;;19.33;88.96;101046.34;5079094;27;45719;-61
2021/09/26 00:59:37;;;;;;;;;26.75;22.00;;;;;19.34;88.16;101053.31;5079861;27;45582;-61
2021/09/26 01:02:03;;;;;;;;;23.00;21.50;;;;;19.32;87.87;101057.81;5078991;27;45563;-61
2021/09/26 01:04:29;;;;;;;;;28.25;26.25;;;;;19.34;88.04;101057.72;5079105;27;46480;-61
2021/09/26 01:07:08;;;;;;;;;27.25;24.00;;;;;19.33;87.55;101050.78;5079011;27;45866;-61
2021/09/26 01:09:45;;;;;;;;;30.00;27.50;;;;;19.33;88.48;101042.88;5079216;27;45427;-61
2021/09/26 01:12:37;;;;;;;;;40.25;29.75;;;;;19.31;88.29;101042.97;5072885;27;45470;-61
2021/09/26 01:15:05;;;;;;;;;31.75;28.25;;;;;19.34;88.08;101044.56;5073181;27;46028;-61
2021/09/26 01:17:50;;;;;;;;;31.50;28.25;;;;;19.37;87.89;101045.22;5073214;27;45683;-61
2021/09/26 01:20:36;;;;;;;;;31.75;29.00;;;;;19.40;88.29;101041.56;5080478;27;45354;-61
2021/09/26 01:23:05;;;;;;;;;26.50;25.50;;;;;19.41;88.54;101046.72;5081000;27;45514;-61
2021/09/26 01:25:33;;;;;;;;;33.25;29.50;;;;;19.42;88.09;101052.84;5081431;28;45492;-61
2021/09/26 01:28:10;;;;;;;;;31.50;29.50;;;;;19.42;88.46;101050.22;5077754;27;45177;-61
2021/09/26 01:30:50;;;;;;;;;29.25;27.00;;;;;19.44;88.06;101053.63;5061372;28;45399;-61
2021/09/26 01:33:31;;;;;;;;;29.50;25.25;;;;;19.43;88.63;101054.56;5068354;28;45216;-62
2021/09/26 01:36:02;;;;;;;;;35.50;26.50;;;;;19.43;88.46;101068.59;5080187;27;46490;-61
2021/09/26 01:39:05;;;;;;;;;29.75;28.50;;;;;19.39;87.96;101053.03;5079648;28;46106;-62
2021/09/26 01:41:59;;;;;;;;;28.50;25.75;;;;;19.38;88.32;101056.59;5075485;28;45371;-61
2021/09/26 01:44:41;;;;;;;;;33.50;29.75;;;;;19.39;88.49;101066.22;5079984;28;45219;-61
2021/09/26 01:47:09;;;;;;;;;27.00;26.00;;;;;19.40;88.70;101065.28;5080208;27;45421;-61
2021/09/26 01:49:41;;;;;;;;;31.25;26.75;;;;;19.39;88.60;101061.78;5080006;28;45160;-61
2021/09/26 01:52:14;;;;;;;;;23.00;21.75;;;;;19.39;88.01;101056.50;5080502;27;45322;-61
2021/09/26 01:54:40;;;;;;;;;30.75;23.75;;;;;19.38;87.64;101060.09;5080113;27;45425;-61
2021/09/26 01:57:06;;;;;;;;;25.00;22.00;;;;;19.36;87.18;101050.59;5080558;27;46259;-61
2021/09/26 01:59:33;;;;;;;;;24.00;21.00;;;;;19.33;87.52;101041.06;5079491;28;45378;-62
2021/09/26 02:02:00;;;;;;;;;20.00;19.50;;;;;19.28;87.07;101048.41;5080727;27;45364;-62
2021/09/26 02:04:26;;;;;;;;;17.50;17.50;;;;;19.28;87.24;101050.19;5080677;27;45218;-62
2021/09/26 02:06:52;;;;;;;;;17.75;17.75;;;;;19.23;86.84;101050.47;5079853;27;46348;-62
2021/09/26 02:09:18;;;;;;;;;21.00;19.75;;;;;19.28;86.78;101044.94;5080811;27;45279;-61
2021/09/26 02:11:44;;;;;;;;;18.25;18.25;;;;;19.32;86.91;101060.47;5080392;28;45224;-61
2021/09/26 02:14:12;;;;;;;;;21.25;17.75;;;;;19.35;87.19;101055.00;5080676;27;45355;-62
2021/09/26 02:16:39;;;;;;;;;24.25;21.25;;;;;19.39;86.42;101050.41;5079260;27;46933;-62
2021/09/26 02:19:06;;;;;;;;;22.25;20.50;;;;;19.41;87.06;101051.16;5060139;28;45543;-62
2021/09/26 02:21:33;;;;;;;;;22.25;19.75;;;;;19.43;86.64;101047.50;5075241;28;45232;-63
2021/09/26 02:23:59;;;;;;;;;23.50;19.00;;;;;19.44;86.84;101046.56;5080278;27;45242;-63
2021/09/26 02:26:26;;;;;;;;;23.25;21.00;;;;;19.45;86.29;101044.78;5080057;27;46372;-62
2021/09/26 02:28:51;;;;;;;;;20.75;18.50;;;;;19.47;86.67;101049.97;5080267;27;45648;-60
2021/09/26 02:31:17;;;;;;;;;19.00;16.75;;;;;19.43;86.40;101055.41;5080054;28;45297;-63
2021/09/26 02:33:45;;;;;;;;;16.50;16.50;;;;;19.41;86.52;101054.63;5080522;28;45521;-62
2021/09/26 02:36:12;;;;;;;;;18.50;16.50;;;;;19.40;86.39;101052.09;5079653;27;46205;-62
2021/09/26 02:38:38;;;;;;;;;19.25;15.50;;;;;19.44;86.31;101057.13;5080027;27;45234;-62
2021/09/26 02:41:14;;;;;;;;;19.00;17.00;;;;;19.48;86.30;101049.88;5080114;27;45215;-62
2021/09/26 02:43:52;;;;;;;;;15.75;15.00;;;;;19.52;86.11;101056.66;5080021;27;45351;-62
2021/09/26 02:46:24;;;;;;;;;15.25;15.00;;;;;19.54;86.15;101060.06;5077930;28;46534;-62
2021/09/26 02:48:51;;;;;;;;;19.50;17.00;;;;;19.55;86.31;101066.19;5080058;27;45420;-62
2021/09/26 02:51:17;;;;;;;;;19.50;17.00;;;;;19.55;85.90;101061.75;5079658;28;45306;-62
2021/09/26 02:53:43;;;;;;;;;13.75;12.75;;;;;19.54;86.17;101051.31;5079249;28;45548;-62
2021/09/26 02:56:09;;;;;;;;;16.50;16.50;;;;;19.51;86.22;101052.31;5079979;27;45268;-62
2021/09/26 02:58:38;;;;;;;;;16.00;14.00;;;;;19.50;86.40;101052.41;5079787;27;45253;-62
2021/09/26 03:01:04;;;;;;;;;16.50;16.25;;;;;19.50;86.50;101045.34;5079949;28;45358;-62
2021/09/26 03:03:29;;;;;;;;;15.75;13.75;;;;;19.51;86.54;101040.94;5079718;27;45559;-63
2021/09/26 03:05:55;;;;;;;;;17.50;15.00;;;;;19.52;86.45;101030.28;5079539;27;46433;-63
2021/09/26 03:08:21;;;;;;;;;17.00;15.25;;;;;19.48;86.33;101026.16;5079540;27;46155;-62
2021/09/26 03:10:50;;;;;;;;;13.75;13.25;;;;;19.47;86.33;101020.97;5078572;28;45395;-62
2021/09/26 03:13:16;;;;;;;;;15.75;14.75;;;;;19.43;85.96;101020.31;5079758;27;45259;-62
2021/09/26 03:15:41;;;;;;;;;15.25;14.00;;;;;19.38;86.12;101019.72;5079623;27;45318;-62
2021/09/26 03:18:07;;;;;;;;;16.00;15.00;;;;;19.34;86.39;101010.28;5067222;27;45330;-63
2021/09/26 03:20:33;;;;;;;;;17.00;14.75;;;;;19.29;86.70;101010.56;5079639;27;45217;-62
2021/09/26 03:22:59;;;;;;;;;14.00;14.00;;;;;19.27;87.09;101003.72;5076729;27;45181;-62
2021/09/26 03:25:24;;;;;;;;;13.25;12.75;;;;;19.26;86.79;100997.59;5068796;28;46371;-63
2021/09/26 03:27:50;;;;;;;;;14.75;13.25;;;;;19.27;87.12;100994.00;5077923;28;45303;-62
2021/09/26 03:30:16;;;;;;;;;17.50;13.75;;;;;19.27;87.32;100982.63;5078202;28;45411;-63
2021/09/26 03:32:42;;;;;;;;;14.00;12.75;;;;;19.24;87.42;100983.66;5079501;28;45465;-63
2021/09/26 03:35:09;;;;;;;;;15.00;12.50;;;;;19.21;87.78;100985.59;5079244;27;46009;-63
2021/09/26 03:37:35;;;;;;;;;16.50;15.75;;;;;19.20;87.63;100991.81;5079278;28;45247;-63
2021/09/26 03:40:01;;;;;;;;;19.25;15.75;;;;;19.19;87.80;100990.13;5079689;27;45433;-62
2021/09/26 03:42:26;;;;;;;;;18.75;17.25;;;;;19.19;87.66;100998.03;5079263;27;45420;-62
2021/09/26 03:44:52;;;;;;;;;19.25;15.25;;;;;19.20;87.94;100991.81;5078370;28;45216;-62
2021/09/26 03:47:17;;;;;;;;;25.25;20.50;;;;;19.23;88.15;100991.66;5078565;27;45267;-61
2021/09/26 03:49:43;;;;;;;;;25.50;23.25;;;;;19.23;87.86;100996.94;5079090;27;45354;-62
2021/09/26 03:52:08;;;;;;;;;21.25;17.75;;;;;19.21;88.20;100997.00;5094458;27;45448;-62
2021/09/26 03:54:34;;;;;;;;;21.50;21.50;;;;;19.22;88.32;101000.47;5078876;27;45363;-62
2021/09/26 03:56:59;;;;;;;;;23.25;19.50;;;;;19.21;88.12;100997.00;5078802;28;45345;-62
2021/09/26 03:59:25;;;;;;;;;21.25;18.50;;;;;19.24;88.30;100996.84;5069678;28;45270;-61
2021/09/26 04:01:50;;;;;;;;;22.25;17.25;;;;;19.26;88.34;101004.66;5082417;27;45318;-62
2021/09/26 04:04:17;;;;;;;;;20.50;19.50;;;;;19.24;88.29;101004.75;5082272;27;45317;-61
2021/09/26 04:06:42;;;;;;;;;21.75;21.75;;;;;19.24;88.31;100982.81;5082529;27;45326;-62
2021/09/26 04:09:08;;;;;;;;;21.75;20.50;;;;;19.23;87.98;100986.38;5081193;28;45437;-62
2021/09/26 04:11:35;;;;;;;;;26.25;21.75;;;;;19.23;88.05;100992.50;5081079;28;45386;-62
2021/09/26 04:14:00;;;;;;;;;22.25;20.75;;;;;19.20;88.30;100981.28;5082479;27;45263;-63
2021/09/26 04:16:27;;;;;;;;;17.50;15.75;;;;;19.14;87.80;100980.72;5082081;27;45232;-62
2021/09/26 04:18:53;;;;;;;;;22.75;16.50;;;;;19.12;88.08;100989.66;5071119;27;45493;-62
2021/09/26 04:21:19;;;;;;;;;22.75;20.75;;;;;19.05;88.14;100976.00;5080693;27;45168;-62
2021/09/26 04:23:46;;;;;;;;;25.00;22.75;;;;;19.01;88.86;100979.72;5082141;27;45581;-62
2021/09/26 04:26:11;;;;;;;;;21.50;20.25;;;;;18.98;88.83;100976.44;5082186;27;45479;-63
2021/09/26 04:28:37;;;;;;;;;17.75;17.00;;;;;18.95;88.62;100969.56;5082429;27;45401;-63
2021/09/26 04:31:03;;;;;;;;;22.25;19.25;;;;;18.96;88.71;100973.03;5081805;27;45460;-62
2021/09/26 04:33:28;;;;;;;;;21.75;19.75;;;;;18.91;89.38;100969.84;5082101;27;46116;-62
2021/09/26 04:35:54;;;;;;;;;17.25;17.25;;;;;18.88;88.76;100978.78;5081640;27;45382;-63
2021/09/26 04:38:19;;;;;;;;;20.00;17.00;;;;;18.86;89.52;100977.16;5082246;27;45354;-62
2021/09/26 04:40:45;;;;;;;;;23.25;20.25;;;;;18.83;89.69;100971.13;5081793;27;45171;-62
2021/09/26 04:43:10;;;;;;;;;18.50;17.50;;;;;18.82;90.01;100966.81;5081602;27;47034;-62
2021/09/26 04:45:36;;;;;;;;;22.00;19.25;;;;;18.83;89.43;100963.25;5078613;28;45176;-62
2021/09/26 04:48:01;;;;;;;;;21.25;19.25;;;;;18.83;90.03;100970.28;5081761;28;45382;-63
2021/09/26 04:50:26;;;;;;;;;22.75;18.25;;;;;18.81;89.58;100966.88;5081086;27;45474;-62
2021/09/26 04:52:52;;;;;;;;;24.25;21.00;;;;;18.80;89.60;100967.81;5080354;27;45310;-63
2021/09/26 04:55:17;;;;;;;;;22.00;20.75;;;;;18.75;89.94;100973.34;5080903;27;45381;-63
2021/09/26 04:57:42;;;;;;;;;22.25;20.50;;;;;18.67;90.14;100972.09;5081816;27;45479;-63
2021/09/26 05:00:09;;;;;;;;;24.75;21.75;;;;;18.64;91.03;100972.28;5081632;27;45321;-62
2021/09/26 05:02:35;;;;;;;;;21.50;19.25;;;;;18.65;90.55;100976.63;5081585;27;46377;-63
2021/09/26 05:05:00;;;;;;;;;19.50;19.25;;;;;18.65;90.96;100974.00;5080889;27;45330;-62
2021/09/26 05:07:25;;;;;;;;;26.25;20.75;;;;;18.64;90.83;100978.41;5081606;28;45689;-62
2021/09/26 05:09:51;;;;;;;;;25.50;22.25;;;;;18.62;91.18;100977.63;5067607;27;45315;-62
2021/09/26 05:12:16;;;;;;;;;24.75;20.50;;;;;18.61;90.85;100998.72;5081481;27;46058;-62
2021/09/26 05:14:42;;;;;;;;;23.25;19.25;;;;;18.59;91.36;100995.34;5081092;27;45355;-62
2021/09/26 05:17:07;;;;;;;;;23.75;20.50;;;;;18.58;91.07;101005.03;5076534;27;45477;-62
2021/09/26 05:19:32;;;;;;;;;21.50;19.50;;;;;18.58;91.11;101004.16;5073814;28;45523;-62
2021/09/26 05:21:58;;;;;;;;;21.50;19.50;;;;;18.59;91.37;101013.75;5079864;28;46066;-62
2021/09/26 05:24:24;;;;;;;;;21.00;20.00;;;;;18.61;91.22;101009.25;5081016;28;45283;-63
2021/09/26 05:26:49;;;;;;;;;22.00;21.25;;;;;18.61;91.20;101014.53;5078070;27;45406;-64
2021/09/26 05:29:14;;;;;;;;;23.00;19.00;;;;;18.61;91.46;101019.78;5079793;27;45303;-63
2021/09/26 05:31:40;;;;;;;;;21.25;20.75;;;;;18.60;91.76;101031.25;5067835;28;45975;-63
2021/09/26 05:34:05;;;;;;;;;19.75;18.50;;;;;18.58;92.45;101030.50;5080390;27;45439;-62
2021/09/26 05:36:31;;;;;;;;;25.25;22.50;;;;;18.57;92.36;101037.53;5081117;27;45376;-62
2021/09/26 05:38:56;;;;;;;;;24.25;20.25;;;;;18.55;92.25;101031.53;5080719;27;45726;-62
2021/09/26 05:41:22;;;;;;;;;23.50;20.25;;;;;18.59;92.46;101038.31;5079872;27;46075;-63
2021/09/26 05:43:48;;;;;;;;;25.00;21.25;;;;;18.59;92.35;101050.63;5078602;27;45287;-61
2021/09/26 05:46:13;;;;;;;;;23.75;21.00;;;;;18.62;92.53;101045.19;5078818;28;45597;-61
2021/09/26 05:48:39;;;;;;;;;21.25;20.50;;;;;18.68;92.90;101050.16;5080269;27;45477;-63
2021/09/26 05:51:04;;;;;;;;;21.25;21.00;;;;;18.64;92.81;101030.22;5079584;27;45522;-62
2021/09/26 05:53:29;;;;;;;;;22.50;20.50;;;;;18.65;92.78;101040.66;5079777;27;45431;-63
2021/09/26 05:55:55;;;;;;;;;21.25;18.75;;;;;18.64;92.77;101051.25;5080594;27;45320;-62
2021/09/26 05:58:21;;;;;;;;;21.75;19.50;;;;;18.71;92.76;101065.78;5079380;27;45387;-62
2021/09/26 06:00:47;;;;;;;;;24.75;22.00;;;;;18.75;92.60;101056.75;5078858;27;46889;-62
2021/09/26 06:03:13;;;;;;;;;21.50;21.50;;;;;18.78;92.34;101067.13;5079893;27;45346;-62
2021/09/26 06:05:39;;;;;;;;;22.00;21.25;;;;;18.84;92.49;101069.41;5079102;27;45468;-62
2021/09/26 06:08:04;;;;;;;;;21.25;19.00;;;;;18.88;92.18;101083.25;5078664;27;45452;-63
2021/09/26 06:10:30;;;;;;;;;21.00;19.50;;;;;18.90;92.72;101089.28;5078572;27;45407;-64
2021/09/26 06:12:55;;;;;;;;;24.00;20.50;;;;;18.93;92.73;101082.06;5078281;27;45358;-64
2021/09/26 06:15:20;;;;;;;;;21.50;18.75;;;;;18.97;92.19;101074.81;5078334;27;45462;-63
2021/09/26 06:17:46;;;;;;;;;26.25;21.25;;;;;18.93;92.66;101082.06;5067676;27;45892;-63
2021/09/26 06:20:11;;;;;;;;;21.00;19.00;;;;;18.84;92.92;101074.69;5075706;28;45800;-62
2021/09/26 06:22:37;;;;;;;;;21.50;20.25;;;;;18.78;93.20;101083.75;5077838;27;45354;-61
2021/09/26 06:25:03;;;;;;;;;22.50;21.00;;;;;18.75;93.00;101085.72;5078816;27;45352;-61
2021/09/26 06:27:28;;;;;;;;;22.50;20.75;;;;;18.79;92.88;101092.50;5078916;27;45580;-62
2021/09/26 06:29:54;;;;;;;;;15.00;12.75;;;;;18.84;92.84;101103.66;5079098;27;46084;-63
2021/09/26 06:32:19;;;;;;;;;20.75;20.25;;;;;18.87;92.69;101103.47;5080153;28;45705;-61
2021/09/26 06:34:45;;;;;;;;;24.75;21.25;;;;;18.90;92.61;101100.66;5080003;27;45370;-62
2021/09/26 06:37:10;;;;;;;;;24.75;22.25;;;;;18.90;92.78;101090.13;5080079;27;45337;-62
2021/09/26 06:39:36;;;;;;;;;23.75;22.00;;;;;18.90;93.64;101099.81;5079959;27;46306;-62
2021/09/26 06:42:02;;;;;;;;;20.00;17.50;;;;;18.85;93.75;101102.72;5080085;27;45386;-62
2021/09/26 06:44:27;;;;;;;;;21.75;20.50;;;;;18.78;94.18;101109.25;5079345;28;45464;-62
2021/09/26 06:46:53;;;;;;;;;21.75;19.00;;;;;18.75;93.38;101110.28;5079346;27;45378;-63
2021/09/26 06:49:18;;;;;;;;;19.75;18.50;;;;;18.80;93.45;101107.38;5079328;27;45905;-64
2021/09/26 06:51:44;;;;;;;;;19.00;15.50;;;;;18.87;93.37;101110.53;5079368;27;45309;-63
2021/09/26 06:54:09;;;;;;;;;22.25;20.25;;;;;18.90;93.28;101111.19;5079533;27;45292;-62
2021/09/26 06:56:35;;;;;;;;;19.50;19.25;;;;;18.92;93.19;101111.97;5079926;27;45206;-63
2021/09/26 06:59:00;;;;;;;;;16.50;16.00;;;;;18.99;93.33;101123.00;5079694;27;46097;-62
2021/09/26 07:01:25;;;;;;;;;20.50;19.50;;;;;19.00;92.91;101117.63;5079923;27;45175;-61
2021/09/26 07:03:51;;;;;;;;;20.75;18.00;;;;;18.95;93.23;101119.69;5079859;27;45215;-62
2021/09/26 07:06:16;;;;;;;;;23.00;18.50;;;;;18.97;93.01;101116.97;5079708;27;45529;-61
2021/09/26 07:08:41;;;;;;;;;20.25;18.75;;;;;18.99;93.54;101121.22;5079309;27;46566;-61
2021/09/26 07:11:07;;;;;;;;;20.50;19.25;;;;;19.00;93.14;101117.63;5079868;27;45314;-61
2021/09/26 07:13:32;;;;;;;;;16.25;13.75;;;;;19.01;93.37;101129.88;5079773;27;45286;-61
2021/09/26 07:15:58;;;;;;;;;19.25;18.25;;;;;18.98;93.12;101143.22;5079660;27;45322;-62
2021/09/26 07:18:23;;;;;;;;;17.75;16.25;;;;;18.97;94.19;101140.66;5067658;28;45883;-62
2021/09/26 07:20:49;;;;;;;;;19.75;16.50;;;;;18.96;93.64;101139.81;5078839;27;45223;-63
2021/09/26 07:23:14;;;;;;;;;25.00;21.00;;;;;19.02;93.06;101131.59;5079363;27;45215;-62
2021/09/26 07:25:39;;;;;;;;;20.25;18.50;;;;;19.13;93.05;101134.47;5079686;27;45349;-59
2021/09/26 07:28:06;;;;;;;;;20.75;17.50;;;;;19.15;93.23;101129.09;5079265;28;46065;-60
2021/09/26 07:30:31;;;;;;;;;22.25;19.75;;;;;19.13;93.45;101141.50;5079392;27;45365;-61
2021/09/26 07:32:57;;;;;;;;;19.50;18.00;;;;;19.10;93.30;101145.16;5081081;27;45408;-60
2021/09/26 07:35:24;;;;;;;;;24.50;19.25;;;;;19.10;93.42;101147.81;5082909;27;45381;-60
2021/09/26 07:37:49;;;;;;;;;22.75;21.25;;;;;19.19;92.68;101153.47;5082653;27;46573;-62
2021/09/26 07:40:15;;;;;;;;;22.25;17.50;;;;;19.28;92.82;101147.69;5070749;27;45161;-62
2021/09/26 07:42:41;;;;;;;;;33.00;26.50;;;;;19.30;92.35;101148.47;5081203;28;45263;-62
2021/09/26 07:45:09;;;;;;;;;23.50;21.75;;;;;19.25;92.02;101161.06;5079645;27;45548;-63
2021/09/26 07:47:35;;;;;;;;;24.00;19.25;;;;;19.22;92.69;101162.09;5081905;27;46582;-63
2021/09/26 07:50:02;;;;;;;;;20.25;19.00;;;;;19.18;92.81;101160.53;5082318;27;45470;-70
2021/09/26 07:52:28;;;;;;;;;24.25;21.50;;;;;19.29;92.65;101167.84;5082118;27;45296;-70
2021/09/26 07:54:56;;;;;;;;;22.75;19.25;;;;;19.32;92.25;101170.31;5081922;27;45387;-72
2021/09/26 07:57:21;;;;;;;;;19.25;19.25;;;;;19.35;92.11;101170.13;5081734;27;46999;-71
2021/09/26 07:59:47;;;;;;;;;24.50;19.25;;;;;19.33;92.07;101174.63;5082582;27;45295;-65
2021/09/26 08:02:13;;;;;;;;;20.00;18.00;;;;;19.37;91.89;101184.91;5082490;27;45295;-66
2021/09/26 08:04:38;;;;;;;;;17.00;15.00;;;;;19.41;91.91;101181.16;5082541;27;45199;-64
2021/09/26 08:07:04;;;;;;;;;21.75;15.50;;;;;19.44;91.40;101183.63;5082109;27;45384;-65
2021/09/26 08:09:29;;;;;;;;;23.00;18.00;;;;;19.49;91.79;101188.63;5081111;28;45295;-68
2021/09/26 08:11:54;;;;;;;;;18.75;16.00;;;;;19.55;91.40;101188.31;5082355;27;45149;-68
2021/09/26 08:14:20;;;;;;;;;18.25;17.25;;;;;19.58;91.02;101187.28;5081894;27;45506;-68
2021/09/26 08:16:45;;;;;;;;;20.75;17.00;;;;;19.65;91.00;101188.66;5079436;27;45504;-63
2021/09/26 08:19:11;;;;;;;;;21.00;18.50;;;;;19.67;90.22;101194.69;5072532;28;45412;-66
2021/09/26 08:21:36;;;;;;;;;19.75;15.50;;;;;19.68;90.28;101193.75;5082093;27;45256;-64
2021/09/26 08:24:06;;;;;;;;;23.25;17.25;;;;;19.75;90.39;101201.19;5081856;27;45310;-65
2021/09/26 08:26:31;;;;;;;;;20.50;17.75;;;;;19.85;89.99;101201.50;5078637;28;46226;-66
2021/09/26 08:28:56;;;;;;;;;23.50;21.25;;;;;19.94;89.18;101181.66;5077846;28;45316;-64
2021/09/26 08:31:22;;;;;;;;;20.00;18.75;;;;;20.09;89.05;101179.88;5078348;27;45157;-65
2021/09/26 08:33:47;;;;;;;;;20.25;16.00;;;;;20.23;88.05;101191.31;5080653;27;45425;-66
2021/09/26 08:36:12;;;;;;;;;20.00;16.25;;;;;20.43;87.69;101190.13;5078942;27;45333;-64
2021/09/26 08:38:38;;;;;;;;;21.75;18.25;;;;;20.66;88.02;101191.34;5079235;27;46440;-66
2021/09/26 08:41:03;;;;;;;;;19.25;13.25;;;;;20.85;86.10;101197.19;5080313;27;45614;-69
2021/09/26 08:43:29;;;;;;;;;16.00;15.00;;;;;20.92;85.84;101193.19;5079130;27;45457;-71
2021/09/26 08:45:55;;;;;;;;;19.75;18.50;;;;;21.06;85.38;101194.97;5078697;27;46096;-67
2021/09/26 08:48:21;;;;;;;;;19.00;16.50;;;;;21.16;85.01;101196.06;5079775;27;45778;-69
2021/09/26 08:50:48;;;;;;;;;18.50;13.25;;;;;21.22;82.96;101192.16;5074591;27;45552;-66
2021/09/26 08:53:13;;;;;;;;;16.75;14.25;;;;;21.20;83.73;101188.78;5075636;28;45635;-66
2021/09/26 08:55:38;;;;;;;;;14.25;13.25;;;;;21.27;83.22;101195.41;5078837;27;46308;-69
2021/09/26 08:58:04;;;;;;;;;14.00;12.50;;;;;21.32;83.12;101205.69;5081124;27;45341;-66
2021/09/26 09:00:30;;;;;;;;;18.25;13.50;;;;;21.33;83.06;101202.94;5081546;27;45443;-68
2021/09/26 09:02:58;;;;;;;;;17.50;14.25;;;;;21.40;82.48;101198.09;5081581;27;45186;-72
2021/09/26 09:05:31;;;;;;;;;13.75;13.00;;;;;21.59;81.58;101201.22;5080816;27;46663;-66
2021/09/26 09:08:14;;;;;;;;;16.75;15.75;;;;;21.75;80.75;101195.75;5081189;27;45242;-65
2021/09/26 09:10:46;;;;;;;;;18.00;14.00;;;;;21.90;79.95;101201.81;5081559;28;45246;-64
2021/09/26 09:13:14;;;;;;;;;14.75;12.75;;;;;22.01;80.05;101204.56;5081337;27;45326;-65
2021/09/26 09:15:42;;;;;;;;;11.50;8.50;;;;;22.11;79.94;101193.31;5081244;27;46307;-68
2021/09/26 09:18:07;;;;;;;;;17.50;13.50;;;;;22.16;79.00;101200.94;5069393;27;45302;-66
2021/09/26 09:20:37;;;;;;;;;14.00;12.00;;;;;22.19;76.08;101186.63;5081192;27;45307;-68
2021/09/26 09:23:05;;;;;;;;;13.50;11.75;;;;;22.20;76.97;101188.31;5080413;27;45468;-68
2021/09/26 09:25:33;;;;;;;;;19.25;14.75;;;;;22.32;77.52;101184.84;5081153;28;46427;-74
2021/09/26 09:27:59;;;;;;;;;14.00;14.00;;;;;22.42;76.13;101193.81;5081163;27;45570;-68
2021/09/26 09:30:33;;;;;;;;;13.25;12.00;;;;;22.63;77.25;101183.53;5081115;27;45503;-69
2021/09/26 09:32:59;;;;;;;;;14.75;14.75;;;;;22.80;75.53;101184.97;5080794;27;45409;-65
2021/09/26 09:35:24;;;;;;;;;15.25;14.00;;;;;22.93;74.33;101175.22;5080724;28;45672;-66
2021/09/26 09:37:50;;;;;;;;;18.50;14.50;;;;;23.05;73.73;101180.50;5080608;27;45294;-64
2021/09/26 09:40:18;;;;;;;;;20.50;15.50;;;;;23.24;73.61;101195.91;5079829;28;45339;-67
2021/09/26 09:42:50;;;;;;;;;16.00;11.75;;;;;23.47;71.96;101201.31;5080106;27;45368;-67
2021/09/26 09:45:25;;;;;;;;;16.50;14.00;;;;;23.59;71.67;101198.59;5079030;27;46153;-66
2021/09/26 09:48:18;;;;;;;;;24.50;22.00;;;;;23.79;70.49;101198.91;5080078;28;45726;-69
2021/09/26 09:50:58;;;;;;;;;15.25;14.50;;;;;23.85;70.52;101191.38;5078939;28;45290;-66
2021/09/26 09:53:38;;;;;;;;;21.50;20.75;;;;;23.79;68.64;101190.97;5079777;27;45421;-67
2021/09/26 09:56:12;;;;;;;;;18.00;15.25;;;;;23.58;67.97;101188.13;5079686;28;46202;-67
2021/09/26 09:58:40;;;;;;;;;17.25;16.50;;;;;23.49;71.23;101192.28;5080706;27;45473;-62
2021/09/26 10:01:09;;;;;;;;;19.00;18.00;;;;;23.65;68.98;101194.69;5080833;27;45267;-59
2021/09/26 10:03:48;;;;;;;;;12.00;11.25;;;;;23.61;68.89;101194.03;5080368;27;45340;-65
2021/09/26 10:06:24;;;;;;;;;132.25;124.75;;;;;23.44;68.62;101191.78;5080116;27;46293;-66
2021/09/26 10:08:51;;;;;;;;;51.50;38.50;;;;;23.32;68.46;101193.53;5080168;28;45345;-64
2021/09/26 10:11:17;;;;;;;;;223.25;190.50;;;;;23.12;67.63;101196.78;5080607;27;45362;-62
2021/09/26 10:13:43;;;;;;;;;46.75;38.25;;;;;22.89;68.69;101201.09;5080248;27;45394;-63
2021/09/26 10:16:10;;;;;;;;;57.00;42.25;;;;;22.86;69.92;101203.97;5080432;27;46143;-61
2021/09/26 10:18:37;;;;;;;;;81.50;73.25;;;;;22.98;69.37;101204.88;5068754;28;45181;-64
2021/09/26 10:21:06;;;;;;;;;61.50;48.00;;;;;22.98;68.95;101203.09;5080263;28;45237;-62
2021/09/26 10:23:32;;;;;;;;;75.75;63.00;;;;;22.84;69.07;101199.75;5074605;28;45248;-64
2021/09/26 10:25:58;;;;;;;;;96.75;84.00;;;;;22.72;70.41;101196.97;5080076;27;46198;-66
2021/09/26 10:28:27;;;;;;;;;274.00;241.25;;;;;22.75;70.75;101201.19;5080633;28;45393;-65
2021/09/26 10:30:57;;;;;;;;;70.50;54.00;;;;;;;;5078694;28;45557;-63
2021/09/26 10:33:26;;;;;;;;;39.25;33.75;;;;;23.02;71.46;101196.59;5080412;27;45350;-63
2021/09/26 10:35:54;;;;;;;;;96.00;86.75;;;;;23.16;69.89;101200.91;5079796;27;46213;-62
2021/09/26 10:38:20;;;;;;;;;95.25;84.00;;;;;23.10;69.64;101198.72;5080034;27;46002;-63
2021/09/26 10:40:46;;;;;;;;;58.50;47.75;;;;;23.11;70.56;101200.41;5080054;27;45279;-66
2021/09/26 10:43:29;;;;;;;;;44.25;35.25;;;;;23.12;68.84;101199.44;5079230;27;45456;-67
2021/09/26 10:46:20;;;;;;;;;20.75;20.25;;;;;23.04;68.11;101201.81;5078070;27;46087;-60
2021/09/26 10:49:14;;;;;;;;;23.75;22.00;;;;;22.98;68.24;101199.59;5080023;28;45354;-64
2021/09/26 10:51:45;;;;;;;;;754.67;619.50;;;;;22.92;69.63;101192.09;5068618;28;45333;-61
2021/09/26 10:54:24;;;;;;;;;54.25;42.00;;;;;23.07;69.46;101193.63;5078837;27;45353;-62
2021/09/26 10:56:51;;;;;;;;;82.25;67.75;;;;;23.12;68.53;101195.94;5079903;27;45284;-62
2021/09/26 10:59:18;;;;;;;;;211.00;174.00;;;;;23.15;68.69;101201.03;5079394;28;45346;-62
2021/09/26 11:01:44;;;;;;;;;52.25;39.00;;;;;23.17;67.12;101197.28;5079812;28;45286;-63
2021/09/26 11:04:14;;;;;;;;;302.00;273.33;;;;;23.11;67.82;101197.75;5079369;27;45286;-63
2021/09/26 11:06:39;;;;;;;;;153.00;138.50;;;;;23.13;68.18;101197.63;5079474;27;45570;-63
2021/09/26 11:09:08;;;;;;;;;39.25;32.00;;;;;23.25;68.22;101186.16;5082017;27;45339;-63
2021/09/26 11:11:45;;;;;;;;;71.00;57.00;;;;;23.38;66.96;101181.59;5081372;27;45180;-63